Saint Francis, AR (72464)

11:51 PM CDT on July 26, 2017 (GMT -0500)
North Peach Orchard | | Change Station
Active Advisory: Heat Advisory

Elev 256 ft 36.42 °N, 89.93 °W | Updated 10 minutes ago

Clear
Clear
78.8 °F
Feels Like 82 °F
N
3.0
Wind Variable Wind from SSW
Gusts 5.0 mph

Today
High -- | Low -- °F
--% Chance of Precip.
Yesterday
High -- | Low -- °F
Precip. -- in
Pressure 29.96 in
Visibility 9.0 miles
Clouds Clear
Heat Index 82 °F
Dew Point 75 °F
Humidity 89%
Rainfall 0.00 in
Snow Depth Not available.
6:02 AM 8:11 PM
Waxing Crescent, 18% visible
METAR KPOF 270353Z AUTO 20004KT 9SM CLR 27/24 A2998 RMK AO2 SLP145 T02670244
Pressure 29.96 in
Visibility 9.0 miles
Clouds Clear
Heat Index 82 °F
Dew Point 75 °F
Humidity 89%
Rainfall 0.00 in
Snow Depth Not available.
6:02 AM 8:11 PM
Waxing Crescent, 18% visible
METAR KPOF 270353Z AUTO 20004KT 9SM CLR 27/24 A2998 RMK AO2 SLP145 T02670244

Get Your Daily Forecast Email!

Thanks for signing up!

Be on the lookout for a verification email in your inbox.

You'll start receiving severe weather alerts in your inbox..

×

10-Day Weather Forecast

Almanac

Astronomy

Jul. 26, 2017 Rise Set
Actual Time
Civil Twilight
Nautical Twilight
Astronomical Twilight
Moon
Length of Visible Light
Length of Day
Tomorrow will be .
, % of the Moon is Illuminated

Today's Extremes

State Highs State Lows

Community

WunderPhotos

Category 6

Welcome to Category 6. This is the collective home for Weather Underground's featured writeups by Dr. Jeff Masters (right), Bob Henson (left), Chris Burt, and other regular contributors.

Nearby

Air Quality

  Air Quality AQ Index Pollutant
Not available.

Snow Depth

Station Depth Elevation

Earthquake Activity

City Distance Mag. Time & Date
Minimum magnitude displayed is 2.5.

Coastal Water Temperatures

Place Temperature

Stations

Nearby Weather Stations

Station Location Temp. Windchill Dew Point Humidity Wind Precip. Elev Updated Type
                   

Watches & Warnings

Heat Advisory
Issued: 5:32 PM CDT Jul. 26, 2017 – National Weather Service

... Heat advisory now in effect until 7 PM CDT Thursday...
... Excessive heat warning is cancelled...

The National Weather Service in Memphis has cancelled the
excessive heat warning.

* Heat index readings... 102 to 109 degrees.

* Timing... peak index values likely 2 PM CDT through 6 PM CDT
Wednesday.

* Impacts... these conditions will lead to an increased risk of
heat-related illnesses. Heat stroke and dehydration will be
possible for those performing strenuous outdoor activities.
The interior of a vehicle can reach lethal temperatures in a
short period of time.

Precautionary/preparedness actions...

A heat advisory means that a period of hot temperatures is
expected. The combination of hot temperatures and high humidity
will combine to create a situation in which heat illnesses are
possible. Drink plenty of fluids... stay in an air-conditioned
room... stay out of the sun... and check up on relatives and
neighbors.